Time;durP1;ratioP1;P1;durP2;ratioP2;P2;SDS_P1;SDS_P2;PMS_P1;PMS_P2;Temp;Humidity;BMP_temperature;BMP_pressure;BME280_temperature;BME280_humidity;BME280_pressure;Samples;Min_cycle;Max_cycle;Signal;HPM_P1;HPM_P2
2021/03/17 00:01:52;;;;;;;5.30;3.50;;;;;;;11.73;59.45;98767.91;1723110;82;21138;-56
2021/03/17 00:04:38;;;;;;;6.12;3.58;;;;;;;11.77;59.31;98759.88;1723071;83;21613;-64
2021/03/17 00:07:24;;;;;;;5.20;3.27;;;;;;;11.78;59.33;98758.95;1722925;83;21219;-65
2021/03/17 00:10:12;;;;;;;4.30;3.35;;;;;;;11.79;59.33;98753.59;1717750;82;21141;-64
2021/03/17 00:12:59;;;;;;;4.65;3.30;;;;;;;11.77;59.44;98762.51;1722757;83;21182;-64
2021/03/17 00:15:45;;;;;;;5.97;4.10;;;;;;;11.81;59.24;98755.70;1723013;83;21129;-56
2021/03/17 00:18:31;;;;;;;4.85;3.45;;;;;;;11.84;59.10;98759.53;1723350;83;21645;-64
2021/03/17 00:21:18;;;;;;;5.42;3.30;;;;;;;11.83;59.12;98757.81;1722764;82;21169;-64
2021/03/17 00:24:07;;;;;;;4.65;3.37;;;;;;;11.82;59.12;98757.42;1722722;83;21126;-63
2021/03/17 00:26:53;;;;;;;5.78;3.45;;;;;;;11.83;59.08;98759.13;1722733;83;21280;-56
2021/03/17 00:29:40;;;;;;;7.15;3.85;;;;;;;11.83;59.12;98755.66;1719118;83;21142;-55
2021/03/17 00:32:26;;;;;;;7.20;3.70;;;;;;;11.83;59.11;98749.91;1723040;83;21219;-57
2021/03/17 00:35:12;;;;;;;5.40;3.70;;;;;;;11.83;59.12;98751.23;1722772;83;21118;-64
2021/03/17 00:37:59;;;;;;;6.12;4.05;;;;;;;11.84;59.10;98754.25;1723140;83;21179;-64
2021/03/17 00:40:45;;;;;;;5.90;3.90;;;;;;;11.82;59.12;98748.19;1723167;83;21174;-64
2021/03/17 00:43:31;;;;;;;4.47;3.50;;;;;;;11.85;59.15;98752.02;1722762;83;21209;-64
2021/03/17 00:46:17;;;;;;;5.00;3.70;;;;;;;11.84;59.17;98751.63;1722803;82;21213;-56
2021/03/17 00:48:48;;;;;;;4.85;3.37;;;;;;;11.84;59.20;98752.09;1723124;83;21566;-63
2021/03/17 00:51:17;;;;;;;5.27;3.73;;;;;;;11.85;59.18;98763.88;1722376;83;21359;-63
2021/03/17 00:54:05;;;;;;;4.28;3.00;;;;;;;11.82;59.25;98761.85;1722919;83;21150;-63
2021/03/17 00:56:33;;;;;;;4.12;3.12;;;;;;;11.77;59.35;98756.76;1723158;83;21165;-56
2021/03/17 00:59:01;;;;;;;4.12;3.02;;;;;;;11.75;59.35;98759.48;1722678;83;21174;-63
2021/03/17 01:01:29;;;;;;;5.67;3.08;;;;;;;11.76;59.36;98757.69;1694906;83;21160;-56
2021/03/17 01:03:57;;;;;;;4.22;2.87;;;;;;;11.75;59.42;98759.48;1700714;83;21154;-56
2021/03/17 01:06:25;;;;;;;5.08;3.50;;;;;;;11.77;59.39;98756.76;1722709;83;21126;-56
2021/03/17 01:08:53;;;;;;;7.92;3.60;;;;;;;11.78;59.33;98753.20;1723077;83;21154;-62
2021/03/17 01:11:20;;;;;;;4.60;3.70;;;;;;;11.77;59.36;98752.80;1722741;83;21170;-62
2021/03/17 01:13:48;;;;;;;5.53;3.60;;;;;;;11.78;59.34;98751.88;1723224;83;21272;-62
2021/03/17 01:16:16;;;;;;;5.33;3.02;;;;;;;11.79;59.36;98754.91;1722728;83;21142;-56
2021/03/17 01:18:44;;;;;;;5.47;3.70;;;;;;;11.77;59.36;98755.44;1722683;83;21610;-57
2021/03/17 01:21:12;;;;;;;4.72;3.00;;;;;;;11.79;59.39;98754.91;1722709;83;21305;-56
2021/03/17 01:23:40;;;;;;;4.47;3.02;;;;;;;11.79;59.31;98759.34;1723196;83;21614;-56
2021/03/17 01:26:08;;;;;;;4.58;3.55;;;;;;;11.79;59.35;98755.39;1723286;83;21174;-56
2021/03/17 01:28:35;;;;;;;5.83;4.10;;;;;;;11.77;59.36;98755.44;1722719;83;21186;-63
2021/03/17 01:31:03;;;;;;;6.53;4.62;;;;;;;11.80;59.36;98754.47;1723076;83;21161;-56
2021/03/17 01:33:32;;;;;;;6.90;4.20;;;;;;;11.79;59.25;98758.87;1722647;83;21142;-57
2021/03/17 01:35:59;;;;;;;5.15;3.98;;;;;;;11.78;59.25;98756.31;1722958;83;21164;-56
2021/03/17 01:38:27;;;;;;;6.28;5.00;;;;;;;11.77;59.33;98751.97;1722760;83;21174;-56
2021/03/17 01:40:56;;;;;;;5.60;4.50;;;;;;;11.75;59.36;98759.92;1723361;83;21273;-64
2021/03/17 01:43:23;;;;;;;7.05;4.83;;;;;;;11.74;59.34;98753.81;1722887;83;21157;-64
2021/03/17 01:45:51;;;;;;;6.95;5.28;;;;;;;11.75;59.27;98759.92;1723000;83;21570;-56
2021/03/17 01:48:19;;;;;;;7.08;4.87;;;;;;;11.71;59.28;98757.02;1740031;82;21244;-57
2021/03/17 01:50:51;;;;;;;6.62;5.10;;;;;;;11.68;59.31;98754.07;1748645;81;21139;-57
2021/03/17 01:53:24;;;;;;;8.65;5.53;;;;;;;11.70;59.27;98759.29;1748284;82;21179;-64
2021/03/17 01:55:52;;;;;;;7.83;5.47;;;;;;;11.67;59.26;98757.63;1748125;82;21143;-64
2021/03/17 01:58:21;;;;;;;7.67;5.37;;;;;;;11.65;59.29;98754.20;1748084;80;21159;-64
2021/03/17 02:00:49;;;;;;;10.53;5.45;;;;;;;11.66;59.30;98757.70;1722439;82;21159;-56
2021/03/17 02:03:17;;;;;;;8.53;6.08;;;;;;;11.66;59.25;98750.64;1718310;83;21159;-64
2021/03/17 02:05:47;;;;;;;8.33;6.12;;;;;;;11.66;59.21;98750.64;1718339;83;21179;-56
2021/03/17 02:08:19;;;;;;;10.20;7.03;;;;;;;11.61;59.30;98749.98;1731388;81;21180;-64
2021/03/17 02:10:47;;;;;;;9.05;6.28;;;;;;;11.59;59.37;98755.33;1748412;82;21178;-56
2021/03/17 02:13:56;;;;;;;10.05;6.55;;;;;;;11.58;59.40;98751.42;1747984;82;21131;-56
2021/03/17 02:16:33;;;;;;;9.58;6.95;;;;;;;11.60;59.35;98752.22;1748208;82;21568;-64
2021/03/17 02:19:20;;;;;;;10.00;7.03;;;;;;;11.54;59.53;98761.25;1747505;82;21210;-63
2021/03/17 02:22:29;;;;;;;11.73;6.58;;;;;;;11.53;59.54;98770.52;1748268;82;21157;-55
2021/03/17 02:25:05;;;;;;;10.23;6.70;;;;;;;11.52;59.56;98767.05;1714932;82;21305;-63
2021/03/17 02:27:55;;;;;;;10.50;7.12;;;;;;;11.51;59.55;98766.64;1741741;80;21119;-56
2021/03/17 02:30:47;;;;;;;13.08;8.15;;;;;;;11.47;59.65;98761.11;1733738;83;21182;-63
2021/03/17 02:33:38;;;;;;;13.32;8.18;;;;;;;11.44;59.73;98764.74;1686416;84;21188;-63
2021/03/17 02:36:13;;;;;;;12.63;8.70;;;;;;;11.42;59.76;98771.84;1742854;81;21150;-63
2021/03/17 02:38:48;;;;;;;12.03;8.08;;;;;;;11.43;59.78;98774.01;1748549;82;21155;-56
2021/03/17 02:41:21;;;;;;;12.78;8.38;;;;;;;11.45;59.78;98773.48;1748262;82;21257;-63
2021/03/17 02:43:53;;;;;;;13.55;9.48;;;;;;;11.45;59.82;98774.80;1747971;82;21182;-63
2021/03/17 02:46:23;;;;;;;13.03;9.15;;;;;;;11.46;59.79;98772.56;1717432;81;21314;-63
2021/03/17 02:49:04;;;;;;;13.45;9.43;;;;;;;11.47;59.79;98777.39;1686180;84;21170;-63
2021/03/17 02:51:36;;;;;;;13.08;8.73;;;;;;;11.47;59.76;98774.28;1733652;83;21613;-55
2021/03/17 02:54:06;;;;;;;11.60;8.33;;;;;;;11.48;59.79;98773.84;1685867;84;21131;-56
2021/03/17 02:56:41;;;;;;;13.05;8.25;;;;;;;11.48;59.85;98775.16;1726969;82;21292;-55
2021/03/17 02:59:10;;;;;;;14.05;9.45;;;;;;;11.48;59.82;98777.79;1748039;82;21150;-56
2021/03/17 03:01:37;;;;;;;13.65;9.43;;;;;;;11.49;59.84;98778.16;1701392;83;21206;-64
2021/03/17 03:04:06;;;;;;;15.68;9.45;;;;;;;11.47;59.88;98775.59;1712832;83;21162;-64
2021/03/17 03:06:34;;;;;;;13.40;9.18;;;;;;;11.48;59.88;98778.62;1748171;82;21155;-63
2021/03/17 03:09:04;;;;;;;13.60;8.88;;;;;;;11.49;59.92;98779.47;1727574;82;21186;-63
2021/03/17 03:11:32;;;;;;;13.68;9.30;;;;;;;11.50;60.01;98787.33;1746582;80;21130;-56
2021/03/17 03:13:59;;;;;;;14.98;9.30;;;;;;;11.50;60.00;98789.96;1678358;84;21218;-57
2021/03/17 03:16:27;;;;;;;16.42;10.05;;;;;;;11.50;60.00;98789.09;1676229;85;21186;-56
2021/03/17 03:18:55;;;;;;;15.00;9.43;;;;;;;11.41;60.08;98787.26;1676165;85;21162;-56
2021/03/17 03:21:22;;;;;;;14.23;9.85;;;;;;;11.35;60.18;98786.19;1688115;83;21612;-63
2021/03/17 03:23:52;;;;;;;12.75;8.68;;;;;;;11.35;60.11;98784.88;1698248;83;21194;-63
2021/03/17 03:26:20;;;;;;;13.03;8.70;;;;;;;11.27;60.27;98794.38;1718703;83;21186;-56
2021/03/17 03:28:49;;;;;;;13.65;8.08;;;;;;;11.19;60.31;98795.17;1718529;83;21752;-63
2021/03/17 03:31:17;;;;;;;13.35;7.92;;;;;;;11.03;60.73;98801.96;1727421;81;21150;-56
2021/03/17 03:33:44;;;;;;;9.78;6.37;;;;;;;10.91;60.93;98801.98;1718404;83;21524;-63
2021/03/17 03:36:14;;;;;;;10.18;6.05;;;;;;;10.81;61.15;98804.97;1718329;83;21131;-63
2021/03/17 03:38:41;;;;;;;9.63;6.65;;;;;;;10.73;61.40;98803.56;1720828;80;21543;-56
2021/03/17 03:41:10;;;;;;;8.18;6.17;;;;;;;10.65;61.58;98806.46;1713490;82;21148;-63
2021/03/17 03:43:38;;;;;;;9.08;6.20;;;;;;;10.59;62.00;98808.03;1710657;84;21200;-63
2021/03/17 03:46:06;;;;;;;10.32;6.58;;;;;;;10.52;62.00;98809.58;1710224;83;21168;-56
2021/03/17 03:48:36;;;;;;;10.00;6.42;;;;;;;10.48;62.27;98804.47;1729419;81;21091;-56
2021/03/17 03:51:04;;;;;;;9.48;7.30;;;;;;;10.42;62.56;98802.94;1747134;81;21161;-62
2021/03/17 03:53:43;;;;;;;9.45;6.80;;;;;;;10.37;62.72;98804.40;1761211;81;21193;-57
2021/03/17 03:56:25;;;;;;;11.22;7.78;;;;;;;10.35;62.76;98804.91;1761746;81;21127;-63
2021/03/17 03:58:59;;;;;;;10.03;7.05;;;;;;;10.35;62.88;98810.61;1744608;81;21224;-64
2021/03/17 04:01:58;;;;;;;8.23;6.08;;;;;;;10.33;63.05;98809.37;1731586;83;21647;-57
2021/03/17 04:04:32;;;;;;;10.10;7.42;;;;;;;10.34;63.13;98811.09;1729154;83;21213;-56
2021/03/17 04:07:02;;;;;;;9.75;7.47;;;;;;;10.33;63.21;98811.13;1740131;81;21177;-57
2021/03/17 04:09:33;;;;;;;9.53;6.47;;;;;;;10.32;63.30;98815.98;1731925;81;21150;-56
2021/03/17 04:12:03;;;;;;;9.88;6.67;;;;;;;10.33;63.50;98824.27;1704573;83;21606;-56
2021/03/17 04:14:33;;;;;;;10.68;6.67;;;;;;;10.31;63.58;98823.47;1731310;83;21303;-64
2021/03/17 04:17:20;;;;;;;10.03;6.50;;;;;;;10.26;63.58;98820.55;1774094;80;21161;-64
2021/03/17 04:19:52;;;;;;;9.53;6.12;;;;;;;10.21;63.78;98815.06;1753278;81;21189;-57
2021/03/17 04:22:19;;;;;;;8.00;5.60;;;;;;;10.19;63.62;98820.36;1725342;83;21176;-63
2021/03/17 04:24:47;;;;;;;8.28;5.65;;;;;;;10.18;63.69;98821.27;1692986;83;21168;-56
2021/03/17 04:27:15;;;;;;;10.32;5.25;;;;;;;10.18;63.72;98821.27;1696388;84;21163;-63
2021/03/17 04:29:42;;;;;;;9.40;5.00;;;;;;;10.15;63.70;98823.16;1724539;83;21109;-56
2021/03/17 04:32:10;;;;;;;10.95;5.37;;;;;;;10.00;63.91;98831.98;1724753;83;21144;-56
2021/03/17 04:34:39;;;;;;;8.25;4.35;;;;;;;9.95;63.77;98826.89;1724870;83;21137;-57
2021/03/17 04:37:06;;;;;;;7.42;4.42;;;;;;;9.93;63.82;98827.87;1671740;83;21616;-63
2021/03/17 04:39:34;;;;;;;6.62;3.95;;;;;;;9.87;63.73;98836.80;1676334;83;21129;-64
2021/03/17 04:42:02;;;;;;;9.70;4.17;;;;;;;9.86;63.75;98837.72;1725597;83;21141;-63
2021/03/17 04:44:30;;;;;;;7.05;4.47;;;;;;;9.78;63.86;98835.80;1724997;83;21137;-57
2021/03/17 04:47:00;;;;;;;8.35;4.05;;;;;;;9.77;63.86;98833.64;1722070;83;21162;-63
2021/03/17 04:49:27;;;;;;;7.08;4.33;;;;;;;9.76;63.79;98837.18;1685571;83;21134;-57
2021/03/17 04:51:55;;;;;;;5.65;3.60;;;;;;;9.80;63.89;98841.42;1756671;81;21550;-64
2021/03/17 04:54:23;;;;;;;5.92;3.80;;;;;;;9.78;63.78;98839.30;1756050;82;21201;-57
2021/03/17 04:56:51;;;;;;;7.17;3.80;;;;;;;9.80;63.75;98855.88;1748221;80;21478;-57
2021/03/17 04:59:20;;;;;;;7.42;3.75;;;;;;;9.79;63.80;98849.34;1723708;80;21169;-56
2021/03/17 05:01:50;;;;;;;6.40;3.10;;;;;;;9.80;63.85;98856.31;1759105;80;21150;-62
2021/03/17 05:04:18;;;;;;;7.78;3.60;;;;;;;9.80;63.79;98859.81;1757093;80;21166;-57
2021/03/17 05:06:46;;;;;;;5.90;4.20;;;;;;;9.78;63.81;98855.06;1751275;80;21597;-57
2021/03/17 05:09:15;;;;;;;8.03;4.08;;;;;;;9.80;63.96;98860.25;1729780;80;21193;-63
2021/03/17 05:11:46;;;;;;;6.80;4.40;;;;;;;9.78;63.84;98859.45;1762369;80;21110;-57
2021/03/17 05:14:14;;;;;;;8.65;4.87;;;;;;;9.21;65.42;98862.16;1760210;80;21143;-63
2021/03/17 05:16:42;;;;;;;8.30;4.17;;;;;;;9.72;64.54;98851.33;1752601;80;21147;-56
2021/03/17 05:19:10;;;;;;;8.90;5.22;;;;;;;9.89;64.08;98849.44;1725063;80;21157;-63
2021/03/17 05:21:38;;;;;;;8.35;4.70;;;;;;;9.95;63.92;98856.25;1750117;80;21146;-56
2021/03/17 05:24:08;;;;;;;12.58;5.85;;;;;;;10.01;63.65;98859.98;1679014;80;21165;-63
2021/03/17 05:26:36;;;;;;;6.55;4.05;;;;;;;10.12;63.79;98858.32;1745358;80;21130;-56
2021/03/17 05:29:03;;;;;;;16.20;6.65;;;;;;;10.19;63.25;98858.48;1727403;82;21166;-63
2021/03/17 05:31:33;;;;;;;11.22;4.85;;;;;;;10.22;63.25;98858.84;1726749;82;21186;-62
2021/03/17 05:34:01;;;;;;;6.80;4.03;;;;;;;10.32;63.28;98862.88;1753637;81;21650;-56
2021/03/17 05:36:31;;;;;;;8.18;3.92;;;;;;;10.42;63.21;98867.38;1726434;83;21316;-56
2021/03/17 05:38:58;;;;;;;7.00;3.50;;;;;;;10.50;62.60;98872.34;1750245;81;21131;-55
2021/03/17 05:41:27;;;;;;;6.12;4.20;;;;;;;10.30;62.81;98873.03;1756313;80;21212;-62
2021/03/17 05:43:57;;;;;;;6.97;4.00;;;;;;;10.37;62.75;98871.91;1756178;82;21158;-56
2021/03/17 05:46:26;;;;;;;7.35;3.95;;;;;;;10.49;62.69;98866.69;1754619;81;21150;-56
2021/03/17 05:48:57;;;;;;;10.18;4.28;;;;;;;10.54;62.40;98866.94;1751078;80;21154;-62
2021/03/17 05:51:25;;;;;;;9.38;3.83;;;;;;;10.58;62.58;98868.14;1718844;82;21161;-55
2021/03/17 05:53:53;;;;;;;8.23;3.90;;;;;;;10.64;62.49;98873.16;1730312;82;21591;-56
2021/03/17 05:56:21;;;;;;;7.97;3.60;;;;;;;10.73;62.68;98879.87;1700760;83;21122;-56
2021/03/17 05:58:48;;;;;;;10.00;4.60;;;;;;;10.82;62.45;98876.44;1748200;82;21162;-56
2021/03/17 06:01:16;;;;;;;6.87;4.12;;;;;;;10.88;62.53;98876.65;1748165;82;21122;-62
2021/03/17 06:03:45;;;;;;;7.70;3.55;;;;;;;10.94;62.40;98878.21;1739118;82;21154;-56
2021/03/17 06:06:16;;;;;;;4.62;3.40;;;;;;;10.81;63.12;98880.45;1705597;82;21119;-62
2021/03/17 06:08:46;;;;;;;10.75;3.72;;;;;;;11.09;62.76;98879.39;1748208;82;21159;-57
2021/03/17 06:11:14;;;;;;;7.20;4.25;;;;;;;11.23;62.75;98883.68;1748374;82;21118;-56
2021/03/17 06:13:50;;;;;;;5.45;3.50;;;;;;;11.32;62.12;98879.82;1722080;81;21632;-61
2021/03/17 06:16:22;;;;;;;4.45;3.00;;;;;;;11.35;61.77;98883.65;1751338;81;21257;-56
2021/03/17 06:18:58;;;;;;;29.52;25.82;;;;;;;11.34;61.21;98887.20;1745903;82;21296;-56
2021/03/17 06:21:26;;;;;;;9.10;7.22;;;;;;;11.28;61.14;98884.80;1748211;82;21178;-62
2021/03/17 06:23:55;;;;;;;10.10;6.90;;;;;;;11.23;60.97;98884.12;1748796;81;21143;-56
2021/03/17 06:26:23;;;;;;;7.17;4.80;;;;;;;11.23;60.93;98886.31;1745169;81;21131;-62
2021/03/17 06:28:51;;;;;;;5.80;3.90;;;;;;;11.25;60.80;98887.11;1729998;82;21138;-61
2021/03/17 06:31:20;;;;;;;4.75;3.30;;;;;;;11.24;60.48;98889.34;1748199;82;21163;-61
2021/03/17 06:33:52;;;;;;;6.03;3.30;;;;;;;11.24;60.40;98893.30;1749038;81;21590;-56
2021/03/17 06:36:25;;;;;;;4.30;3.10;;;;;;;11.24;60.14;98892.42;1748635;81;21571;-61
2021/03/17 06:39:07;;;;;;;6.12;3.62;;;;;;;11.26;60.03;98895.38;1746215;82;21558;-61
2021/03/17 06:41:51;;;;;;;7.22;3.72;;;;;;;11.25;59.50;98893.70;1749017;81;21149;-62
2021/03/17 06:44:27;;;;;;;5.75;3.50;;;;;;;11.27;60.29;98890.52;1748445;82;21166;-56
2021/03/17 06:47:21;;;;;;;7.85;3.85;;;;;;;11.35;60.45;98887.60;1734503;82;21135;-56
2021/03/17 06:49:52;;;;;;;6.37;3.70;;;;;;;11.52;60.69;98890.88;1753629;82;21203;-56
2021/03/17 06:52:29;;;;;;;7.17;4.05;;;;;;;11.66;60.46;98896.91;1757010;80;21594;-57
2021/03/17 06:55:15;;;;;;;8.23;4.12;;;;;;;11.75;60.25;98893.91;1756128;81;21179;-56
2021/03/17 06:57:52;;;;;;;5.83;3.90;;;;;;;11.89;60.82;98894.64;1743702;82;21556;-56
2021/03/17 07:00:32;;;;;;;4.50;3.67;;;;;;;12.15;61.45;98902.42;1756480;81;21162;-62
2021/03/17 07:03:12;;;;;;;5.62;3.62;;;;;;;12.33;61.06;98899.45;1756087;80;21157;-62
2021/03/17 07:05:45;;;;;;;5.87;3.42;;;;;;;12.45;60.14;98901.56;1751208;82;21170;-62
2021/03/17 07:08:15;;;;;;;4.65;3.42;;;;;;;12.55;60.72;98894.56;1756495;82;21200;-57
2021/03/17 07:10:45;;;;;;;5.75;3.58;;;;;;;12.72;60.86;98901.73;1723928;82;21150;-63
2021/03/17 07:13:14;;;;;;;6.58;4.08;;;;;;;12.83;60.49;98900.76;1756092;80;21212;-57
2021/03/17 07:15:42;;;;;;;4.72;3.20;;;;;;;12.92;60.13;98898.19;1740659;82;21127;-56
2021/03/17 07:18:19;;;;;;;5.20;3.50;;;;;;;13.03;60.21;98896.36;1735781;81;21148;-63
2021/03/17 07:20:54;;;;;;;5.37;3.22;;;;;;;13.22;60.67;98900.33;1756407;82;21606;-57
2021/03/17 07:23:41;;;;;;;4.87;3.50;;;;;;;13.42;61.00;98899.41;1750504;80;21193;-63
2021/03/17 07:26:18;;;;;;;5.20;3.10;;;;;;;13.63;60.59;98900.16;1726014;83;21198;-57
2021/03/17 07:28:53;;;;;;;5.33;2.90;;;;;;;13.82;58.82;98904.56;1718912;83;21533;-57
2021/03/17 07:31:28;;;;;;;7.17;3.30;;;;;;;13.89;59.44;98892.76;1756900;80;21174;-57
2021/03/17 07:34:19;;;;;;;6.45;3.70;;;;;;;14.02;59.28;98895.64;1766927;81;21119;-64
2021/03/17 07:37:05;;;;;;;5.58;3.20;;;;;;;14.18;59.25;98895.71;1740402;82;21309;-57
2021/03/17 07:39:42;;;;;;;6.20;4.35;;;;;;;14.25;58.22;98890.95;1756333;82;21182;-64
2021/03/17 07:42:11;;;;;;;7.72;4.37;;;;;;;14.37;59.42;98887.67;1753585;82;21162;-64
2021/03/17 07:44:41;;;;;;;7.58;5.03;;;;;;;14.58;59.32;98894.97;1756316;81;21202;-64
2021/03/17 07:47:11;;;;;;;8.30;4.90;;;;;;;14.93;58.78;98893.19;1756292;82;21186;-57
2021/03/17 07:49:44;;;;;;;10.32;5.75;;;;;;;14.93;58.78;98893.19;1739770;82;21842;-64
2021/03/17 07:52:22;;;;;;;7.17;5.20;;;;;;;15.02;59.09;98900.16;1755734;82;21227;-64
2021/03/17 07:54:53;;;;;;;8.00;5.60;;;;;;;15.13;58.81;98895.63;1691384;83;21172;-64
2021/03/17 07:57:23;;;;;;;9.03;6.00;;;;;;;15.24;58.48;98893.70;1726453;83;21381;-57
2021/03/17 07:59:55;;;;;;;9.88;5.45;;;;;;;15.35;58.51;98891.77;1741710;82;21151;-64
2021/03/17 08:02:23;;;;;;;8.15;5.08;;;;;;;15.49;58.33;98890.98;1734626;81;21611;-64
2021/03/17 08:04:52;;;;;;;6.25;4.47;;;;;;;15.71;58.17;98893.27;1726067;83;21343;-59
2021/03/17 08:07:20;;;;;;;8.88;5.22;;;;;;;15.91;57.94;98893.95;1726345;83;21502;-58
2021/03/17 08:09:49;;;;;;;6.50;4.47;;;;;;;16.08;57.71;98889.48;1752843;82;21138;-63
2021/03/17 08:12:17;;;;;;;5.62;4.28;;;;;;;16.22;57.49;98896.13;1740179;82;21627;-65
2021/03/17 08:14:46;;;;;;;7.00;4.10;;;;;;;16.39;57.10;98895.60;1726175;83;21166;-57
2021/03/17 08:17:32;;;;;;;7.72;4.70;;;;;;;16.47;56.63;98899.98;1733175;82;21134;-57
2021/03/17 08:20:22;;;;;;;6.30;4.20;;;;;;;16.50;56.53;98901.13;1742106;82;21178;-57
2021/03/17 08:22:51;;;;;;;8.03;4.30;;;;;;;16.48;55.96;98894.56;1726410;83;21178;-65
2021/03/17 08:25:45;;;;;;;7.03;4.25;;;;;;;16.47;55.62;98902.64;1737423;81;21963;-57
2021/03/17 08:28:22;;;;;;;6.92;3.87;;;;;;;16.42;55.46;98900.23;1755599;82;21166;-57
2021/03/17 08:30:54;;;;;;;7.60;4.80;;;;;;;16.38;55.31;98908.50;1746777;82;21166;-65
2021/03/17 08:33:34;;;;;;;6.20;4.35;;;;;;;16.34;55.08;98906.02;1699379;83;21139;-57
2021/03/17 08:36:16;;;;;;;7.25;5.25;;;;;;;16.34;55.05;98910.46;1705813;83;21255;-64
2021/03/17 08:38:54;;;;;;;5.08;4.42;;;;;;;16.32;54.80;98911.05;1755434;81;21167;-64
2021/03/17 08:41:42;;;;;;;6.50;4.72;;;;;;;16.29;54.61;98908.09;1756276;82;21139;-64
2021/03/17 08:44:21;;;;;;;6.03;3.87;;;;;;;16.25;54.50;98903.07;1756159;82;21138;-57
2021/03/17 08:46:50;;;;;;;5.22;4.28;;;;;;;16.24;54.52;98902.20;1756807;80;21566;-64
2021/03/17 08:49:33;;;;;;;7.55;4.45;;;;;;;16.26;54.56;98898.98;1744447;82;21149;-64
2021/03/17 08:52:08;;;;;;;6.35;4.42;;;;;;;16.31;54.56;98900.05;1693953;85;21126;-63
2021/03/17 08:54:42;;;;;;;5.03;4.40;;;;;;;16.35;54.29;98904.20;1714481;83;21185;-64
2021/03/17 08:57:13;;;;;;;5.53;4.42;;;;;;;16.38;54.05;98904.52;1722804;82;21774;-57
2021/03/17 09:00:01;;;;;;;5.93;4.30;;;;;;;16.42;53.81;98896.26;1695153;83;21312;-64
2021/03/17 09:02:32;;;;;;;6.15;4.50;;;;;;;16.52;54.02;98893.92;1699290;83;21122;-64
2021/03/17 09:05:06;;;;;;;7.17;4.45;;;;;;;16.74;54.33;98897.45;1723351;83;21194;-64
2021/03/17 09:07:35;;;;;;;6.20;4.35;;;;;;;16.94;53.37;98896.20;1694426;83;21308;-57
2021/03/17 09:10:10;;;;;;;5.30;4.55;;;;;;;17.21;53.90;98901.25;1693543;84;21756;-57
2021/03/17 09:12:46;;;;;;;6.25;4.75;;;;;;;17.54;54.01;98890.72;1716511;83;21595;-64
2021/03/17 09:15:17;;;;;;;7.60;4.80;;;;;;;17.89;53.19;98894.65;1723018;83;21170;-64
2021/03/17 09:17:53;;;;;;;6.05;5.10;;;;;;;18.19;52.83;98893.59;1707533;82;21163;-57
2021/03/17 09:20:28;;;;;;;6.65;4.47;;;;;;;18.36;52.49;98891.95;1697192;83;21148;-65
2021/03/17 09:23:04;;;;;;;6.42;4.92;;;;;;;18.49;52.19;98892.45;1723318;83;21585;-57
2021/03/17 09:25:56;;;;;;;5.05;4.10;;;;;;;18.50;51.69;98889.70;1723176;83;21146;-58
2021/03/17 09:28:29;;;;;;;5.15;4.53;;;;;;;18.43;51.56;98898.57;1704372;83;21157;-65
2021/03/17 09:31:07;;;;;;;6.83;4.17;;;;;;;18.41;51.08;98895.66;1708055;83;21157;-65
2021/03/17 09:33:37;;;;;;;7.20;3.98;;;;;;;18.37;50.51;98894.16;1722939;83;21605;-57
2021/03/17 09:36:24;;;;;;;6.87;3.98;;;;;;;18.32;50.42;98898.47;1716057;83;21138;-57
2021/03/17 09:38:53;;;;;;;4.28;3.67;;;;;;;18.28;50.31;98900.97;1702368;83;21625;-65
2021/03/17 09:41:25;;;;;;;5.42;4.03;;;;;;;18.24;49.94;98902.13;1723137;82;21130;-57
2021/03/17 09:44:00;;;;;;;4.80;3.70;;;;;;;18.17;49.43;98903.00;1722419;83;21015;-57
2021/03/17 09:46:37;;;;;;;3.83;3.12;;;;;;;18.11;48.77;98904.28;1720524;83;21159;-56
2021/03/17 09:49:16;;;;;;;4.40;3.52;;;;;;;17.90;48.88;98910.53;1723100;83;21031;-57
2021/03/17 09:52:01;;;;;;;4.87;3.40;;;;;;;17.77;48.68;98905.17;1755644;81;21502;-64
2021/03/17 09:54:31;;;;;;;5.65;3.55;;;;;;;17.66;48.65;98915.16;1758479;81;21034;-57
2021/03/17 09:57:01;;;;;;;5.87;3.55;;;;;;;17.56;48.82;98922.06;1738760;81;21095;-58
2021/03/17 09:59:34;;;;;;;5.62;3.85;;;;;;;17.50;48.91;98922.45;1759006;81;21166;-65
2021/03/17 10:02:17;;;;;;;5.92;3.42;;;;;;;17.43;48.61;98920.67;1758117;80;21140;-65
2021/03/17 10:04:50;;;;;;;5.22;3.60;;;;;;;17.38;48.67;98925.43;1758171;81;21051;-64
2021/03/17 10:07:21;;;;;;;5.72;3.40;;;;;;;17.32;48.86;98921.83;1754928;80;21284;-64
2021/03/17 10:09:52;;;;;;;4.40;3.33;;;;;;;17.28;49.01;98926.96;1753707;81;21039;-64
2021/03/17 10:12:27;;;;;;;4.62;3.65;;;;;;;17.27;49.01;98927.42;1758244;81;21138;-64
2021/03/17 10:15:09;;;;;;;6.08;3.65;;;;;;;17.32;49.16;98924.48;1747384;81;21051;-56
2021/03/17 10:17:37;;;;;;;5.72;4.17;;;;;;;17.45;49.34;98928.54;1758237;81;21110;-65
2021/03/17 10:20:12;;;;;;;7.35;3.27;;;;;;;17.54;49.29;98926.13;1758082;81;21086;-64
2021/03/17 10:22:40;;;;;;;7.33;3.70;;;;;;;17.72;49.40;98926.36;1756192;80;21605;-57
2021/03/17 10:25:15;;;;;;;4.90;3.10;;;;;;;17.90;49.22;98924.30;1756653;80;21043;-56
2021/03/17 10:27:46;;;;;;;5.62;3.37;;;;;;;18.04;49.08;98928.27;1758621;80;21545;-64
2021/03/17 10:30:21;;;;;;;5.03;3.35;;;;;;;18.16;48.65;98923.09;1768704;80;20995;-56
2021/03/17 10:32:49;;;;;;;4.85;3.08;;;;;;;18.20;48.57;98931.25;1727633;83;21610;-57
2021/03/17 10:35:18;;;;;;;3.70;2.95;;;;;;;18.26;48.37;98926.85;1710665;81;21019;-64
2021/03/17 10:37:48;;;;;;;4.80;2.70;;;;;;;17.56;49.48;98938.48;1758965;80;21126;-57
2021/03/17 10:40:20;;;;;;;4.03;2.90;;;;;;;18.25;47.69;98927.31;1758076;81;21482;-64
2021/03/17 10:42:55;;;;;;;4.70;2.98;;;;;;;18.32;47.71;98924.23;1756534;81;21131;-64
2021/03/17 10:45:25;;;;;;;3.98;2.75;;;;;;;18.36;47.61;98928.41;1759260;81;21498;-64
2021/03/17 10:47:52;;;;;;;7.55;3.70;;;;;;;18.34;47.41;98925.83;1758767;80;21102;-57
2021/03/17 10:50:33;;;;;;;4.37;2.92;;;;;;;18.37;47.46;98921.63;1738933;81;21039;-56
2021/03/17 10:53:01;;;;;;;5.50;2.80;;;;;;;18.45;47.95;98922.45;1725410;81;21272;-56
2021/03/17 10:55:31;;;;;;;4.50;3.00;;;;;;;18.56;47.88;98923.88;1756305;81;21083;-57
2021/03/17 10:58:16;;;;;;;5.72;3.33;;;;;;;18.66;47.95;98923.25;1756102;82;21161;-64
2021/03/17 11:00:51;;;;;;;3.22;2.40;;;;;;;18.85;47.90;98914.82;1831004;77;22569;-64
2021/03/17 11:03:31;;;;;;;3.67;2.20;;;;;;;18.96;47.78;98922.12;1774628;80;21303;-56
2021/03/17 11:06:23;;;;;;;4.25;3.17;;;;;;;19.11;47.57;98921.02;1790198;80;21151;-56
2021/03/17 11:09:06;;;;;;;5.28;3.70;;;;;;;19.29;47.36;98910.00;1792191;80;21324;-56
2021/03/17 11:11:51;;;;;;;5.12;4.33;;;;;;;19.49;46.99;98914.36;1793839;78;21110;-64
2021/03/17 11:14:35;;;;;;;6.10;3.98;;;;;;;19.62;46.50;98913.84;1793470;80;21174;-64
2021/03/17 11:17:06;;;;;;;5.78;3.05;;;;;;;19.68;46.22;98906.72;1792967;80;21134;-64
2021/03/17 11:19:36;;;;;;;5.37;4.60;;;;;;;19.70;46.03;98904.79;1773135;80;21116;-64
2021/03/17 11:22:03;;;;;;;4.80;4.20;;;;;;;19.65;45.76;98904.77;1769910;78;21142;-64
2021/03/17 11:24:31;;;;;;;6.83;5.25;;;;;;;19.70;45.69;98903.45;1762065;81;21174;-64
2021/03/17 11:26:59;;;;;;;5.12;3.72;;;;;;;19.71;45.52;98903.83;1762807;80;21163;-56
2021/03/17 11:29:29;;;;;;;5.58;3.98;;;;;;;19.72;45.43;98900.66;1700883;81;21581;-64
2021/03/17 11:32:06;;;;;;;10.18;9.00;;;;;;;19.66;45.04;98899.77;1732785;81;21582;-65
2021/03/17 11:34:34;;;;;;;26.70;22.90;;;;;;;19.62;45.12;98899.16;1726655;83;21201;-56
2021/03/17 11:37:02;;;;;;;10.08;8.88;;;;;;;19.58;44.99;98899.02;1738522;81;21166;-56
2021/03/17 11:39:30;;;;;;;9.13;5.80;;;;;;;19.56;44.23;98906.28;1751423;81;21162;-63
2021/03/17 11:41:57;;;;;;;6.65;5.12;;;;;;;19.47;44.06;98907.31;1713665;82;21478;-63
2021/03/17 11:44:25;;;;;;;6.33;4.90;;;;;;;19.34;44.14;98905.66;1716154;83;21301;-56
2021/03/17 11:46:53;;;;;;;5.87;4.90;;;;;;;19.24;44.14;98912.14;1728558;81;21637;-56
2021/03/17 11:49:22;;;;;;;6.50;5.00;;;;;;;19.09;44.31;98910.94;1718711;83;21301;-63
2021/03/17 11:51:50;;;;;;;8.28;5.40;;;;;;;18.95;44.27;98911.89;1720313;83;21610;-63
2021/03/17 11:54:18;;;;;;;6.42;5.72;;;;;;;18.85;44.70;98912.16;1726802;83;21664;-63
2021/03/17 11:56:46;;;;;;;6.83;5.62;;;;;;;18.77;44.88;98910.50;1736641;81;21296;-56
2021/03/17 11:59:14;;;;;;;5.65;5.05;;;;;;;18.71;45.08;98905.13;1729122;83;21186;-56
2021/03/17 12:01:42;;;;;;;6.65;5.30;;;;;;;18.64;45.25;98899.85;1696941;84;21143;-56